sensor_id;sensor_type;location;lat;lon;timestamp;pressure;altitude;pressure_sealevel;temperature;humidity
32320;BME280;19080;51.750;5.888;2024-02-28T00:02:01;101833.13;;;0.14;100.00
32320;BME280;19080;51.750;5.888;2024-02-28T00:04:28;101825.63;;;0.19;100.00
32320;BME280;19080;51.750;5.888;2024-02-28T00:06:55;101823.81;;;0.18;100.00
32320;BME280;19080;51.750;5.888;2024-02-28T00:09:21;101819.97;;;0.13;100.00
32320;BME280;19080;51.750;5.888;2024-02-28T00:11:48;101820.19;;;0.16;100.00
32320;BME280;19080;51.750;5.888;2024-02-28T00:14:15;101818.59;;;0.18;100.00
32320;BME280;19080;51.750;5.888;2024-02-28T00:16:42;101826.31;;;0.16;100.00
32320;BME280;19080;51.750;5.888;2024-02-28T00:19:09;101822.69;;;0.14;100.00
32320;BME280;19080;51.750;5.888;2024-02-28T00:21:38;101827.22;;;0.17;100.00
32320;BME280;19080;51.750;5.888;2024-02-28T00:24:07;101787.34;;;-0.06;100.00
32320;BME280;19080;51.750;5.888;2024-02-28T00:26:33;101805.31;;;0.15;100.00
32320;BME280;19080;51.750;5.888;2024-02-28T00:29:00;101791.19;;;-0.01;100.00
32320;BME280;19080;51.750;5.888;2024-02-28T00:31:27;101805.66;;;0.08;100.00
32320;BME280;19080;51.750;5.888;2024-02-28T00:33:53;101809.28;;;0.10;100.00
32320;BME280;19080;51.750;5.888;2024-02-28T00:36:20;101810.88;;;0.08;100.00
32320;BME280;19080;51.750;5.888;2024-02-28T00:38:47;101800.81;;;0.00;100.00
32320;BME280;19080;51.750;5.888;2024-02-28T00:41:13;101762.84;;;-0.19;100.00
32320;BME280;19080;51.750;5.888;2024-02-28T00:43:40;101790.75;;;-0.07;100.00
32320;BME280;19080;51.750;5.888;2024-02-28T00:46:07;101815.53;;;0.12;100.00
32320;BME280;19080;51.750;5.888;2024-02-28T00:48:38;101799.06;;;0.13;100.00
32320;BME280;19080;51.750;5.888;2024-02-28T00:51:05;101818.22;;;0.25;100.00
32320;BME280;19080;51.750;5.888;2024-02-28T00:53:32;101777.75;;;0.07;100.00
32320;BME280;19080;51.750;5.888;2024-02-28T00:56:00;101804.59;;;0.29;100.00
32320;BME280;19080;51.750;5.888;2024-02-28T00:58:26;101784.19;;;0.23;100.00
32320;BME280;19080;51.750;5.888;2024-02-28T01:00:54;101814.00;;;0.39;100.00
32320;BME280;19080;51.750;5.888;2024-02-28T01:03:21;101804.09;;;0.46;100.00
32320;BME280;19080;51.750;5.888;2024-02-28T01:05:49;101812.16;;;0.49;100.00
32320;BME280;19080;51.750;5.888;2024-02-28T01:08:16;101817.59;;;0.52;100.00
32320;BME280;19080;51.750;5.888;2024-02-28T01:10:44;101787.09;;;0.40;100.00
32320;BME280;19080;51.750;5.888;2024-02-28T01:13:11;101786.19;;;0.39;100.00
32320;BME280;19080;51.750;5.888;2024-02-28T01:15:41;101814.81;;;0.62;100.00
32320;BME280;19080;51.750;5.888;2024-02-28T01:18:10;101798.25;;;0.62;100.00
32320;BME280;19080;51.750;5.888;2024-02-28T01:20:37;101801.41;;;0.70;100.00
32320;BME280;19080;51.750;5.888;2024-02-28T01:23:04;101801.28;;;0.68;100.00
32320;BME280;19080;51.750;5.888;2024-02-28T01:25:31;101795.94;;;0.67;100.00
32320;BME280;19080;51.750;5.888;2024-02-28T01:27:58;101807.97;;;0.76;100.00
32320;BME280;19080;51.750;5.888;2024-02-28T01:30:25;101807.97;;;0.76;100.00
32320;BME280;19080;51.750;5.888;2024-02-28T01:32:52;101804.75;;;0.80;100.00
32320;BME280;19080;51.750;5.888;2024-02-28T01:35:18;101804.97;;;0.83;100.00
32320;BME280;19080;51.750;5.888;2024-02-28T01:37:45;101807.25;;;0.79;100.00
32320;BME280;19080;51.750;5.888;2024-02-28T01:40:12;101797.03;;;0.82;100.00
32320;BME280;19080;51.750;5.888;2024-02-28T01:42:39;101801.13;;;0.78;100.00
32320;BME280;19080;51.750;5.888;2024-02-28T01:45:06;101753.66;;;0.47;100.00
32320;BME280;19080;51.750;5.888;2024-02-28T01:47:36;101819.63;;;0.81;100.00
32320;BME280;19080;51.750;5.888;2024-02-28T01:50:04;101817.03;;;0.81;100.00
32320;BME280;19080;51.750;5.888;2024-02-28T01:52:31;101816.97;;;0.93;100.00
32320;BME280;19080;51.750;5.888;2024-02-28T01:54:58;101787.16;;;0.78;100.00
32320;BME280;19080;51.750;5.888;2024-02-28T01:57:25;101786.78;;;0.85;100.00
32320;BME280;19080;51.750;5.888;2024-02-28T01:59:53;101822.81;;;1.02;100.00
32320;BME280;19080;51.750;5.888;2024-02-28T02:02:22;101817.81;;;1.05;100.00
32320;BME280;19080;51.750;5.888;2024-02-28T02:04:49;101822.25;;;1.06;100.00
32320;BME280;19080;51.750;5.888;2024-02-28T02:07:16;101814.59;;;1.09;100.00
32320;BME280;19080;51.750;5.888;2024-02-28T02:09:42;101820.03;;;1.12;100.00
32320;BME280;19080;51.750;5.888;2024-02-28T02:12:09;101811.19;;;1.10;100.00
32320;BME280;19080;51.750;5.888;2024-02-28T02:14:36;101820.47;;;1.18;100.00
32320;BME280;19080;51.750;5.888;2024-02-28T02:17:02;101823.31;;;1.35;100.00
32320;BME280;19080;51.750;5.888;2024-02-28T02:19:29;101816.97;;;1.31;100.00
32320;BME280;19080;51.750;5.888;2024-02-28T02:22:03;101816.88;;;1.29;100.00
32320;BME280;19080;51.750;5.888;2024-02-28T02:24:31;101812.22;;;1.25;100.00
32320;BME280;19080;51.750;5.888;2024-02-28T02:26:58;101814.47;;;1.33;100.00
32320;BME280;19080;51.750;5.888;2024-02-28T02:29:25;101817.88;;;1.32;100.00
32320;BME280;19080;51.750;5.888;2024-02-28T02:31:54;101806.31;;;1.28;100.00
32320;BME280;19080;51.750;5.888;2024-02-28T02:34:20;101815.38;;;1.33;100.00
32320;BME280;19080;51.750;5.888;2024-02-28T02:36:47;101811.53;;;1.28;100.00
32320;BME280;19080;51.750;5.888;2024-02-28T02:39:14;101812.03;;;1.22;100.00
32320;BME280;19080;51.750;5.888;2024-02-28T02:41:40;101815.03;;;1.15;100.00
32320;BME280;19080;51.750;5.888;2024-02-28T02:44:08;101813.31;;;1.16;100.00
32320;BME280;19080;51.750;5.888;2024-02-28T02:46:35;101817.03;;;1.19;100.00
32320;BME280;19080;51.750;5.888;2024-02-28T02:49:01;101827.09;;;1.13;100.00
32320;BME280;19080;51.750;5.888;2024-02-28T02:51:28;101829.19;;;1.06;100.00
32320;BME280;19080;51.750;5.888;2024-02-28T02:53:55;101837.41;;;0.98;100.00
32320;BME280;19080;51.750;5.888;2024-02-28T02:56:21;101833.78;;;0.96;100.00
32320;BME280;19080;51.750;5.888;2024-02-28T02:58:48;101836.28;;;0.95;100.00
32320;BME280;19080;51.750;5.888;2024-02-28T03:01:14;101821.75;;;0.87;100.00
32320;BME280;19080;51.750;5.888;2024-02-28T03:03:41;101829.50;;;0.85;100.00
32320;BME280;19080;51.750;5.888;2024-02-28T03:06:08;101796.59;;;0.76;100.00
32320;BME280;19080;51.750;5.888;2024-02-28T03:08:36;101829.03;;;0.91;100.00
32320;BME280;19080;51.750;5.888;2024-02-28T03:11:03;101834.25;;;0.91;100.00
32320;BME280;19080;51.750;5.888;2024-02-28T03:13:31;101835.69;;;0.99;100.00
32320;BME280;19080;51.750;5.888;2024-02-28T03:15:57;101829.03;;;0.91;100.00
32320;BME280;19080;51.750;5.888;2024-02-28T03:18:24;101832.66;;;0.93;100.00
32320;BME280;19080;51.750;5.888;2024-02-28T03:20:51;101827.22;;;0.90;100.00
32320;BME280;19080;51.750;5.888;2024-02-28T03:23:17;101809.06;;;0.80;100.00
32320;BME280;19080;51.750;5.888;2024-02-28T03:25:44;101807.69;;;0.85;100.00
32320;BME280;19080;51.750;5.888;2024-02-28T03:28:11;101838.31;;;0.99;100.00
32320;BME280;19080;51.750;5.888;2024-02-28T03:30:38;101827.84;;;0.99;100.00
32320;BME280;19080;51.750;5.888;2024-02-28T03:33:04;101828.31;;;0.93;100.00
32320;BME280;19080;51.750;5.888;2024-02-28T03:35:31;101823.38;;;0.85;100.00
32320;BME280;19080;51.750;5.888;2024-02-28T03:37:58;101842.69;;;0.87;100.00
32320;BME280;19080;51.750;5.888;2024-02-28T03:40:24;101805.81;;;0.71;100.00
32320;BME280;19080;51.750;5.888;2024-02-28T03:42:51;101828.81;;;0.88;100.00
32320;BME280;19080;51.750;5.888;2024-02-28T03:45:18;101827.31;;;0.91;100.00
32320;BME280;19080;51.750;5.888;2024-02-28T03:47:46;101827.22;;;0.90;100.00
32320;BME280;19080;51.750;5.888;2024-02-28T03:50:12;101823.22;;;0.95;100.00
32320;BME280;19080;51.750;5.888;2024-02-28T03:52:39;101831.03;;;0.95;100.00
32320;BME280;19080;51.750;5.888;2024-02-28T03:55:06;101832.88;;;0.96;100.00
32320;BME280;19080;51.750;5.888;2024-02-28T03:57:32;101820.16;;;0.89;100.00
32320;BME280;19080;51.750;5.888;2024-02-28T04:00:01;101825.22;;;0.99;100.00
32320;BME280;19080;51.750;5.888;2024-02-28T04:02:37;101793.59;;;0.83;100.00
32320;BME280;19080;51.750;5.888;2024-02-28T04:05:04;101822.41;;;0.96;100.00
32320;BME280;19080;51.750;5.888;2024-02-28T04:07:31;101823.41;;;0.98;100.00
32320;BME280;19080;51.750;5.888;2024-02-28T04:09:57;101820.16;;;0.89;100.00
32320;BME280;19080;51.750;5.888;2024-02-28T04:12:24;101792.88;;;0.72;100.00
32320;BME280;19080;51.750;5.888;2024-02-28T04:14:51;101827.41;;;0.93;100.00
32320;BME280;19080;51.750;5.888;2024-02-28T04:17:17;101831.84;;;0.94;100.00
32320;BME280;19080;51.750;5.888;2024-02-28T04:19:44;101830.63;;;0.89;100.00
32320;BME280;19080;51.750;5.888;2024-02-28T04:22:10;101833.81;;;0.85;100.00
32320;BME280;19080;51.750;5.888;2024-02-28T04:24:37;101817.13;;;0.58;100.00
32320;BME280;19080;51.750;5.888;2024-02-28T04:27:04;101840.50;;;0.56;100.00
32320;BME280;19080;51.750;5.888;2024-02-28T04:29:32;101836.78;;;0.53;100.00
32320;BME280;19080;51.750;5.888;2024-02-28T04:31:58;101823.06;;;0.44;100.00
32320;BME280;19080;51.750;5.888;2024-02-28T04:34:25;101804.56;;;0.41;100.00
32320;BME280;19080;51.750;5.888;2024-02-28T04:36:52;101839.13;;;0.61;100.00
32320;BME280;19080;51.750;5.888;2024-02-28T04:39:18;101854.91;;;0.63;100.00
32320;BME280;19080;51.750;5.888;2024-02-28T04:41:45;101853.44;;;0.67;100.00
32320;BME280;19080;51.750;5.888;2024-02-28T04:44:12;101858.28;;;0.74;100.00
32320;BME280;19080;51.750;5.888;2024-02-28T04:46:39;101830.31;;;0.48;100.00
32320;BME280;19080;51.750;5.888;2024-02-28T04:49:05;101858.66;;;0.67;100.00
32320;BME280;19080;51.750;5.888;2024-02-28T04:51:32;101859.56;;;0.67;100.00
32320;BME280;19080;51.750;5.888;2024-02-28T04:53:59;101854.00;;;0.62;100.00
32320;BME280;19080;51.750;5.888;2024-02-28T04:56:25;101857.28;;;0.72;100.00
32320;BME280;19080;51.750;5.888;2024-02-28T04:58:52;101834.59;;;0.59;100.00
32320;BME280;19080;51.750;5.888;2024-02-28T05:01:18;101862.06;;;0.65;100.00
32320;BME280;19080;51.750;5.888;2024-02-28T05:03:47;101864.09;;;0.70;100.00
32320;BME280;19080;51.750;5.888;2024-02-28T05:06:14;101830.44;;;0.49;100.00
32320;BME280;19080;51.750;5.888;2024-02-28T05:08:41;101866.38;;;0.65;100.00
32320;BME280;19080;51.750;5.888;2024-02-28T05:11:08;101858.47;;;0.52;100.00
32320;BME280;19080;51.750;5.888;2024-02-28T05:13:35;101841.59;;;0.35;100.00
32320;BME280;19080;51.750;5.888;2024-02-28T05:16:01;101865.97;;;0.47;100.00
32320;BME280;19080;51.750;5.888;2024-02-28T05:18:28;101838.75;;;0.32;100.00
32320;BME280;19080;51.750;5.888;2024-02-28T05:20:55;101841.00;;;0.39;100.00
32320;BME280;19080;51.750;5.888;2024-02-28T05:23:22;101864.97;;;0.45;100.00
32320;BME280;19080;51.750;5.888;2024-02-28T05:25:49;101869.06;;;0.42;100.00
32320;BME280;19080;51.750;5.888;2024-02-28T05:28:16;101874.41;;;0.43;100.00
32320;BME280;19080;51.750;5.888;2024-02-28T05:30:42;101875.06;;;0.41;100.00
32320;BME280;19080;51.750;5.888;2024-02-28T05:33:13;101865.44;;;0.28;100.00
32320;BME280;19080;51.750;5.888;2024-02-28T05:35:39;101882.34;;;0.33;100.00
32320;BME280;19080;51.750;5.888;2024-02-28T05:38:06;101855.81;;;0.15;100.00
32320;BME280;19080;51.750;5.888;2024-02-28T05:40:33;101873.50;;;0.31;100.00
32320;BME280;19080;51.750;5.888;2024-02-28T05:42:59;101881.34;;;0.31;100.00
32320;BME280;19080;51.750;5.888;2024-02-28T05:45:26;101895.31;;;0.20;100.00
32320;BME280;19080;51.750;5.888;2024-02-28T05:47:53;101890.19;;;0.21;100.00
32320;BME280;19080;51.750;5.888;2024-02-28T05:50:19;101896.91;;;0.29;100.00
32320;BME280;19080;51.750;5.888;2024-02-28T05:52:46;101859.44;;;0.17;100.00
32320;BME280;19080;51.750;5.888;2024-02-28T05:55:12;101882.81;;;0.39;100.00
32320;BME280;19080;51.750;5.888;2024-02-28T05:57:39;101891.88;;;0.44;100.00
32320;BME280;19080;51.750;5.888;2024-02-28T06:00:06;101866.16;;;0.14;100.00
32320;BME280;19080;51.750;5.888;2024-02-28T06:02:39;101867.84;;;0.13;100.00
32320;BME280;19080;51.750;5.888;2024-02-28T06:05:06;101888.97;;;0.16;100.00
32320;BME280;19080;51.750;5.888;2024-02-28T06:07:33;101889.53;;;0.24;100.00
32320;BME280;19080;51.750;5.888;2024-02-28T06:10:00;101899.75;;;0.21;100.00
32320;BME280;19080;51.750;5.888;2024-02-28T06:12:26;101879.78;;;0.10;100.00
32320;BME280;19080;51.750;5.888;2024-02-28T06:14:53;101902.56;;;0.24;100.00
32320;BME280;19080;51.750;5.888;2024-02-28T06:17:20;101898.25;;;0.24;100.00
32320;BME280;19080;51.750;5.888;2024-02-28T06:19:48;101899.16;;;0.25;100.00
32320;BME280;19080;51.750;5.888;2024-02-28T06:22:14;101904.50;;;0.15;100.00
32320;BME280;19080;51.750;5.888;2024-02-28T06:24:41;101904.38;;;0.25;100.00
32320;BME280;19080;51.750;5.888;2024-02-28T06:27:08;101923.69;;;0.27;100.00
32320;BME280;19080;51.750;5.888;2024-02-28T06:29:41;101911.09;;;0.33;100.00
32320;BME280;19080;51.750;5.888;2024-02-28T06:32:08;101909.13;;;0.42;100.00
32320;BME280;19080;51.750;5.888;2024-02-28T06:34:35;101912.56;;;0.41;100.00
32320;BME280;19080;51.750;5.888;2024-02-28T06:37:01;101923.44;;;0.47;100.00
32320;BME280;19080;51.750;5.888;2024-02-28T06:39:28;101897.91;;;0.43;100.00
32320;BME280;19080;51.750;5.888;2024-02-28T06:41:55;101917.50;;;0.61;100.00
32320;BME280;19080;51.750;5.888;2024-02-28T06:44:21;101925.78;;;0.68;100.00
32320;BME280;19080;51.750;5.888;2024-02-28T06:46:48;101931.00;;;0.68;100.00
32320;BME280;19080;51.750;5.888;2024-02-28T06:49:14;101906.63;;;0.55;100.00
32320;BME280;19080;51.750;5.888;2024-02-28T06:51:43;101934.97;;;0.74;100.00
32320;BME280;19080;51.750;5.888;2024-02-28T06:54:10;101935.78;;;0.73;100.00
32320;BME280;19080;51.750;5.888;2024-02-28T06:56:36;101918.06;;;0.69;100.00
32320;BME280;19080;51.750;5.888;2024-02-28T06:59:03;101924.63;;;0.76;100.00
32320;BME280;19080;51.750;5.888;2024-02-28T07:01:30;101914.88;;;0.73;100.00
32320;BME280;19080;51.750;5.888;2024-02-28T07:03:57;101946.75;;;0.92;100.00
32320;BME280;19080;51.750;5.888;2024-02-28T07:06:23;101948.56;;;0.93;100.00
32320;BME280;19080;51.750;5.888;2024-02-28T07:08:51;101944.91;;;1.03;100.00
32320;BME280;19080;51.750;5.888;2024-02-28T07:11:17;101955.78;;;1.09;100.00
32320;BME280;19080;51.750;5.888;2024-02-28T07:13:44;101923.75;;;1.00;100.00
32320;BME280;19080;51.750;5.888;2024-02-28T07:16:11;101955.09;;;1.12;100.00
32320;BME280;19080;51.750;5.888;2024-02-28T07:18:37;101945.53;;;1.12;100.00
32320;BME280;19080;51.750;5.888;2024-02-28T07:21:04;101962.75;;;1.34;100.00
32320;BME280;19080;51.750;5.888;2024-02-28T07:23:33;101961.72;;;1.32;100.00
32320;BME280;19080;51.750;5.888;2024-02-28T07:25:59;101974.66;;;1.42;100.00
32320;BME280;19080;51.750;5.888;2024-02-28T07:28:38;101958.53;;;1.36;100.00
32320;BME280;19080;51.750;5.888;2024-02-28T07:31:04;101977.22;;;1.53;100.00
32320;BME280;19080;51.750;5.888;2024-02-28T07:33:31;101974.31;;;1.62;100.00
32320;BME280;19080;51.750;5.888;2024-02-28T07:35:58;101974.22;;;1.60;100.00
32320;BME280;19080;51.750;5.888;2024-02-28T07:38:27;101975.53;;;1.67;100.00
32320;BME280;19080;51.750;5.888;2024-02-28T07:40:54;101987.63;;;1.65;100.00
32320;BME280;19080;51.750;5.888;2024-02-28T07:43:21;101977.38;;;1.68;100.00
32320;BME280;19080;51.750;5.888;2024-02-28T07:45:47;101979.38;;;1.72;100.00
32320;BME280;19080;51.750;5.888;2024-02-28T07:48:14;101962.84;;;1.60;100.00
32320;BME280;19080;51.750;5.888;2024-02-28T07:50:41;101963.69;;;1.72;100.00
32320;BME280;19080;51.750;5.888;2024-02-28T07:53:08;101990.06;;;1.88;100.00
32320;BME280;19080;51.750;5.888;2024-02-28T07:55:35;101956.31;;;1.80;100.00
32320;BME280;19080;51.750;5.888;2024-02-28T07:58:01;101994.94;;;2.09;100.00
32320;BME280;19080;51.750;5.888;2024-02-28T08:00:28;101973.56;;;1.89;100.00
32320;BME280;19080;51.750;5.888;2024-02-28T08:02:57;101995.13;;;1.99;100.00
32320;BME280;19080;51.750;5.888;2024-02-28T08:05:23;102003.22;;;2.15;100.00
32320;BME280;19080;51.750;5.888;2024-02-28T08:07:50;101989.81;;;2.10;100.00
32320;BME280;19080;51.750;5.888;2024-02-28T08:10:17;102002.81;;;2.22;100.00
32320;BME280;19080;51.750;5.888;2024-02-28T08:12:43;102003.00;;;2.12;100.00
32320;BME280;19080;51.750;5.888;2024-02-28T08:15:10;101994.16;;;2.10;100.00
32320;BME280;19080;51.750;5.888;2024-02-28T08:17:37;101994.75;;;2.19;100.00
32320;BME280;19080;51.750;5.888;2024-02-28T08:20:04;102004.75;;;2.24;100.00
32320;BME280;19080;51.750;5.888;2024-02-28T08:22:31;102014.34;;;2.37;100.00
32320;BME280;19080;51.750;5.888;2024-02-28T08:24:58;102026.03;;;2.42;100.00
32320;BME280;19080;51.750;5.888;2024-02-28T08:27:25;102021.19;;;2.48;100.00
32320;BME280;19080;51.750;5.888;2024-02-28T08:29:54;102018.47;;;2.60;100.00
32320;BME280;19080;51.750;5.888;2024-02-28T08:32:20;102027.66;;;2.67;100.00
32320;BME280;19080;51.750;5.888;2024-02-28T08:34:47;101996.91;;;2.64;100.00
32320;BME280;19080;51.750;5.888;2024-02-28T08:37:14;102020.28;;;2.74;100.00
32320;BME280;19080;51.750;5.888;2024-02-28T08:39:41;102026.44;;;2.75;100.00
32320;BME280;19080;51.750;5.888;2024-02-28T08:42:07;102024.13;;;2.79;100.00
32320;BME280;19080;51.750;5.888;2024-02-28T08:44:34;102026.94;;;2.96;100.00
32320;BME280;19080;51.750;5.888;2024-02-28T08:47:00;102038.59;;;3.14;100.00
32320;BME280;19080;51.750;5.888;2024-02-28T08:49:27;102040.59;;;3.31;100.00
32320;BME280;19080;51.750;5.888;2024-02-28T08:51:54;102028.94;;;3.41;100.00
32320;BME280;19080;51.750;5.888;2024-02-28T08:54:20;102038.50;;;3.68;100.00
32320;BME280;19080;51.750;5.888;2024-02-28T08:56:47;102044.63;;;3.82;100.00
32320;BME280;19080;51.750;5.888;2024-02-28T08:59:22;102042.47;;;4.04;100.00
32320;BME280;19080;51.750;5.888;2024-02-28T09:01:49;102033.44;;;4.29;100.00
32320;BME280;19080;51.750;5.888;2024-02-28T09:04:15;102020.94;;;4.39;100.00
32320;BME280;19080;51.750;5.888;2024-02-28T09:06:42;102022.53;;;4.67;100.00
32320;BME280;19080;51.750;5.888;2024-02-28T09:09:09;102015.25;;;4.92;100.00
32320;BME280;19080;51.750;5.888;2024-02-28T09:11:36;102031.72;;;5.04;100.00
32320;BME280;19080;51.750;5.888;2024-02-28T09:14:03;102027.13;;;5.16;100.00
32320;BME280;19080;51.750;5.888;2024-02-28T09:16:29;102023.59;;;5.32;100.00
32320;BME280;19080;51.750;5.888;2024-02-28T09:18:56;102023.50;;;5.31;100.00
32320;BME280;19080;51.750;5.888;2024-02-28T09:21:23;102029.25;;;5.23;100.00
32320;BME280;19080;51.750;5.888;2024-02-28T09:23:49;102010.19;;;5.11;100.00
32320;BME280;19080;51.750;5.888;2024-02-28T09:26:16;102028.59;;;5.11;100.00
32320;BME280;19080;51.750;5.888;2024-02-28T09:28:43;102025.72;;;5.23;100.00
32320;BME280;19080;51.750;5.888;2024-02-28T09:31:10;102032.09;;;5.43;100.00
32320;BME280;19080;51.750;5.888;2024-02-28T09:33:37;102021.22;;;5.37;100.00
32320;BME280;19080;51.750;5.888;2024-02-28T09:36:04;102014.31;;;5.39;100.00
32320;BME280;19080;51.750;5.888;2024-02-28T09:38:31;102024.28;;;5.61;100.00
32320;BME280;19080;51.750;5.888;2024-02-28T09:40:59;102002.78;;;5.85;100.00
32320;BME280;19080;51.750;5.888;2024-02-28T09:43:29;102008.31;;;6.06;100.00
32320;BME280;19080;51.750;5.888;2024-02-28T09:46:00;102000.97;;;6.17;100.00
32320;BME280;19080;51.750;5.888;2024-02-28T09:48:30;102004.09;;;6.62;100.00
32320;BME280;19080;51.750;5.888;2024-02-28T09:50:57;102016.34;;;7.14;100.00
32320;BME280;19080;51.750;5.888;2024-02-28T09:53:24;101997.91;;;7.72;100.00
32320;BME280;19080;51.750;5.888;2024-02-28T09:55:51;102005.50;;;8.24;100.00
32320;BME280;19080;51.750;5.888;2024-02-28T09:58:19;102014.53;;;8.71;100.00
32320;BME280;19080;51.750;5.888;2024-02-28T10:00:49;102016.84;;;8.84;100.00
32320;BME280;19080;51.750;5.888;2024-02-28T10:03:19;102014.34;;;9.32;100.00
32320;BME280;19080;51.750;5.888;2024-02-28T10:05:46;102000.13;;;9.52;100.00
32320;BME280;19080;51.750;5.888;2024-02-28T10:08:14;101994.47;;;9.43;100.00
32320;BME280;19080;51.750;5.888;2024-02-28T10:10:47;102005.34;;;10.21;100.00
32320;BME280;19080;51.750;5.888;2024-02-28T10:13:18;101994.88;;;10.25;100.00
32320;BME280;19080;51.750;5.888;2024-02-28T10:15:44;102006.56;;;9.83;100.00
32320;BME280;19080;51.750;5.888;2024-02-28T10:18:11;102008.09;;;10.00;100.00
32320;BME280;19080;51.750;5.888;2024-02-28T10:20:38;102009.06;;;10.02;100.00
32320;BME280;19080;51.750;5.888;2024-02-28T10:23:05;102016.19;;;11.07;100.00
32320;BME280;19080;51.750;5.888;2024-02-28T10:25:33;102025.19;;;11.39;100.00
32320;BME280;19080;51.750;5.888;2024-02-28T10:28:11;102028.06;;;11.19;100.00
32320;BME280;19080;51.750;5.888;2024-02-28T10:30:41;102022.63;;;10.87;100.00
32320;BME280;19080;51.750;5.888;2024-02-28T10:33:15;102012.28;;;10.69;100.00
32320;BME280;19080;51.750;5.888;2024-02-28T10:35:42;102016.50;;;11.17;100.00
32320;BME280;19080;51.750;5.888;2024-02-28T10:38:13;102008.22;;;11.36;100.00
32320;BME280;19080;51.750;5.888;2024-02-28T10:40:40;102004.41;;;11.56;100.00
32320;BME280;19080;51.750;5.888;2024-02-28T10:43:09;101999.56;;;12.36;100.00
32320;BME280;19080;51.750;5.888;2024-02-28T10:45:37;102005.06;;;12.42;100.00
32320;BME280;19080;51.750;5.888;2024-02-28T10:48:27;101978.97;;;11.94;100.00
32320;BME280;19080;51.750;5.888;2024-02-28T10:50:54;101998.25;;;12.20;100.00
32320;BME280;19080;51.750;5.888;2024-02-28T10:53:32;101999.06;;;12.51;100.00
32320;BME280;19080;51.750;5.888;2024-02-28T10:56:02;101991.34;;;12.61;100.00
32320;BME280;19080;51.750;5.888;2024-02-28T10:58:35;101971.41;;;12.80;100.00
32320;BME280;19080;51.750;5.888;2024-02-28T11:01:05;101975.41;;;12.28;100.00
32320;BME280;19080;51.750;5.888;2024-02-28T11:03:32;101990.75;;;12.04;100.00
32320;BME280;19080;51.750;5.888;2024-02-28T11:05:59;101999.91;;;12.15;100.00
32320;BME280;19080;51.750;5.888;2024-02-28T11:08:29;101998.38;;;12.25;100.00
32320;BME280;19080;51.750;5.888;2024-02-28T11:10:56;101975.34;;;11.62;100.00
32320;BME280;19080;51.750;5.888;2024-02-28T11:13:27;101993.72;;;11.25;100.00
32320;BME280;19080;51.750;5.888;2024-02-28T11:15:54;101987.72;;;11.03;100.00
32320;BME280;19080;51.750;5.888;2024-02-28T11:18:24;101966.38;;;11.00;100.00
32320;BME280;19080;51.750;5.888;2024-02-28T11:20:51;101998.66;;;11.13;100.00
32320;BME280;19080;51.750;5.888;2024-02-28T11:23:17;101982.56;;;11.36;100.00
32320;BME280;19080;51.750;5.888;2024-02-28T11:25:44;101983.28;;;11.31;100.00
32320;BME280;19080;51.750;5.888;2024-02-28T11:28:11;101965.38;;;11.25;100.00
32320;BME280;19080;51.750;5.888;2024-02-28T11:30:38;101980.56;;;11.29;100.00
32320;BME280;19080;51.750;5.888;2024-02-28T11:33:04;101983.50;;;11.10;100.00
32320;BME280;19080;51.750;5.888;2024-02-28T11:35:32;101981.94;;;11.17;100.00
32320;BME280;19080;51.750;5.888;2024-02-28T11:37:59;101956.78;;;11.34;100.00
32320;BME280;19080;51.750;5.888;2024-02-28T11:40:26;101957.06;;;11.43;100.00
32320;BME280;19080;51.750;5.888;2024-02-28T11:42:56;101979.66;;;11.29;100.00
32320;BME280;19080;51.750;5.888;2024-02-28T11:45:24;101986.13;;;11.08;100.00
32320;BME280;19080;51.750;5.888;2024-02-28T11:47:52;101976.81;;;10.94;100.00
32320;BME280;19080;51.750;5.888;2024-02-28T11:50:19;101965.00;;;10.58;100.00
32320;BME280;19080;51.750;5.888;2024-02-28T11:52:45;101960.06;;;10.43;100.00
32320;BME280;19080;51.750;5.888;2024-02-28T11:55:12;101940.09;;;10.02;100.00
32320;BME280;19080;51.750;5.888;2024-02-28T11:57:39;101958.44;;;9.96;100.00
32320;BME280;19080;51.750;5.888;2024-02-28T12:00:07;101922.97;;;9.68;100.00
32320;BME280;19080;51.750;5.888;2024-02-28T12:02:36;101936.91;;;9.63;100.00
32320;BME280;19080;51.750;5.888;2024-02-28T12:05:03;101961.22;;;9.75;100.00
32320;BME280;19080;51.750;5.888;2024-02-28T12:07:31;101956.81;;;9.75;100.00
32320;BME280;19080;51.750;5.888;2024-02-28T12:09:59;101935.28;;;9.66;100.00
32320;BME280;19080;51.750;5.888;2024-02-28T12:12:29;101951.50;;;9.75;100.00
32320;BME280;19080;51.750;5.888;2024-02-28T12:14:59;101952.91;;;9.90;100.00
32320;BME280;19080;51.750;5.888;2024-02-28T12:17:31;101948.63;;;9.93;100.00
32320;BME280;19080;51.750;5.888;2024-02-28T12:19:59;101934.50;;;9.94;100.00
32320;BME280;19080;51.750;5.888;2024-02-28T12:22:26;101942.31;;;10.15;100.00
32320;BME280;19080;51.750;5.888;2024-02-28T12:24:53;101930.84;;;10.16;100.00
32320;BME280;19080;51.750;5.888;2024-02-28T12:27:20;101918.28;;;10.36;100.00
32320;BME280;19080;51.750;5.888;2024-02-28T12:29:47;101924.50;;;10.65;100.00
32320;BME280;19080;51.750;5.888;2024-02-28T12:32:13;101921.50;;;10.81;100.00
32320;BME280;19080;51.750;5.888;2024-02-28T12:34:43;101920.03;;;10.91;100.00
32320;BME280;19080;51.750;5.888;2024-02-28T12:37:10;101912.09;;;10.92;100.00
32320;BME280;19080;51.750;5.888;2024-02-28T12:39:36;101885.53;;;10.64;100.00
32320;BME280;19080;51.750;5.888;2024-02-28T12:42:04;101921.06;;;10.67;100.00
32320;BME280;19080;51.750;5.888;2024-02-28T12:44:31;101911.41;;;10.42;100.00
32320;BME280;19080;51.750;5.888;2024-02-28T12:46:58;101904.72;;;10.27;100.00
32320;BME280;19080;51.750;5.888;2024-02-28T12:49:24;101910.81;;;10.24;100.00